createdAt,value
2019-01-08T00:01:26.249Z,9.00
2019-01-08T00:03:54.792Z,9.00
2019-01-08T00:06:47.341Z,9.00
2019-01-08T00:09:16.536Z,8.90
2019-01-08T00:11:45.301Z,8.90
2019-01-08T00:14:20.485Z,8.80
2019-01-08T00:16:49.491Z,8.80
2019-01-08T00:19:18.035Z,8.70
2019-01-08T00:21:46.759Z,8.60
2019-01-08T00:24:15.225Z,8.60
2019-01-08T00:26:45.593Z,8.50
2019-01-08T00:29:14.373Z,8.50
2019-01-08T00:31:43.257Z,8.50
2019-01-08T00:34:11.955Z,8.40
2019-01-08T00:36:40.845Z,8.40
2019-01-08T00:39:09.559Z,8.40
2019-01-08T00:41:38.119Z,8.30
2019-01-08T00:44:06.585Z,8.30
2019-01-08T00:46:35.073Z,8.20
2019-01-08T00:49:03.545Z,8.10
2019-01-08T00:51:32.713Z,8.10
2019-01-08T00:54:01.438Z,8.00
2019-01-08T00:56:30.221Z,8.00
2019-01-08T00:58:59.083Z,7.90
2019-01-08T01:01:27.901Z,7.90
2019-01-08T01:03:56.435Z,7.80
2019-01-08T01:06:26.843Z,7.80
2019-01-08T01:08:55.645Z,7.80
2019-01-08T01:11:24.450Z,7.70
2019-01-08T01:13:53.261Z,7.60
2019-01-08T01:16:22.309Z,7.60
2019-01-08T01:18:51.049Z,7.50
2019-01-08T01:21:19.916Z,7.50
2019-01-08T01:23:48.805Z,7.40
2019-01-08T01:26:17.318Z,7.40
2019-01-08T01:28:46.176Z,7.30
2019-01-08T01:31:14.989Z,7.30
2019-01-08T01:33:43.737Z,7.30
2019-01-08T01:36:12.191Z,7.20
2019-01-08T01:38:40.949Z,7.20
2019-01-08T01:41:09.717Z,7.20
2019-01-08T01:43:38.158Z,7.10
2019-01-08T01:46:06.977Z,7.10
2019-01-08T01:48:35.420Z,7.00
2019-01-08T01:51:03.947Z,7.00
2019-01-08T01:53:32.424Z,7.00
2019-01-08T01:56:00.883Z,7.00
2019-01-08T01:58:29.686Z,7.00
2019-01-08T02:00:58.176Z,7.00
2019-01-08T02:03:26.990Z,7.00
2019-01-08T02:05:55.715Z,6.90
2019-01-08T02:08:24.466Z,6.90
2019-01-08T02:10:53.279Z,6.80
2019-01-08T02:13:21.729Z,6.80
2019-01-08T02:15:50.196Z,6.80
2019-01-08T02:18:18.928Z,6.80
2019-01-08T02:20:47.736Z,6.80
2019-01-08T02:23:16.571Z,6.80
2019-01-08T02:25:45.191Z,6.70
2019-01-08T02:28:13.754Z,6.70
2019-01-08T02:30:42.575Z,6.70
2019-01-08T02:33:11.032Z,6.70
2019-01-08T02:35:39.490Z,6.70
2019-01-08T02:38:08.136Z,6.60
2019-01-08T02:40:37.022Z,6.60
2019-01-08T02:43:05.517Z,6.60
2019-01-08T02:45:34.222Z,6.60
2019-01-08T02:48:03.112Z,6.50
2019-01-08T02:50:31.956Z,6.50
2019-01-08T02:53:00.401Z,6.50
2019-01-08T02:55:29.098Z,6.40
2019-01-08T02:57:57.994Z,6.40
2019-01-08T03:00:26.911Z,6.40
2019-01-08T03:02:55.802Z,6.40
2019-01-08T03:05:24.648Z,6.40
2019-01-08T03:07:56.448Z,6.30
2019-01-08T03:10:25.210Z,6.30
2019-01-08T03:12:56.534Z,6.30
2019-01-08T03:15:25.256Z,6.30
2019-01-08T03:17:54.038Z,6.30
2019-01-08T03:20:22.764Z,6.30
2019-01-08T03:22:51.599Z,6.30
2019-01-08T03:25:20.070Z,6.30
2019-01-08T03:27:48.870Z,6.30
2019-01-08T03:30:17.671Z,6.30
2019-01-08T03:32:46.540Z,6.30
2019-01-08T03:35:15.260Z,6.30
2019-01-08T03:37:44.000Z,6.30
2019-01-08T03:40:12.815Z,6.30
2019-01-08T03:42:41.600Z,6.30
2019-01-08T03:45:10.148Z,6.20
2019-01-08T03:47:38.952Z,6.20
2019-01-08T03:50:09.340Z,6.20
2019-01-08T03:52:37.791Z,6.20
2019-01-08T03:55:06.308Z,6.20
2019-01-08T03:57:35.050Z,6.20
2019-01-08T04:00:06.144Z,6.20
2019-01-08T04:02:34.862Z,6.10
2019-01-08T04:05:03.770Z,6.10
2019-01-08T04:07:32.649Z,6.10
2019-01-08T04:10:01.416Z,6.10
2019-01-08T04:12:29.883Z,6.10
2019-01-08T04:14:58.704Z,6.00
2019-01-08T04:17:27.174Z,6.00
2019-01-08T04:19:55.964Z,6.00
2019-01-08T04:22:24.840Z,6.00
2019-01-08T04:24:53.666Z,6.00
2019-01-08T04:27:22.524Z,6.00
2019-01-08T04:29:51.303Z,6.10
2019-01-08T04:32:20.088Z,6.00
2019-01-08T04:34:49.008Z,6.10
2019-01-08T04:37:17.834Z,6.10
2019-01-08T04:39:46.676Z,6.00
2019-01-08T04:42:15.108Z,6.00
2019-01-08T04:44:43.557Z,6.00
2019-01-08T04:47:12.314Z,6.00
2019-01-08T04:49:40.756Z,6.00
2019-01-08T04:52:09.578Z,6.00
2019-01-08T04:54:38.348Z,6.00
2019-01-08T04:57:07.067Z,6.00
2019-01-08T04:59:35.826Z,6.00
2019-01-08T05:02:04.646Z,6.00
2019-01-08T05:04:33.086Z,6.00
2019-01-08T05:07:01.578Z,6.00
2019-01-08T05:09:30.386Z,6.00
2019-01-08T05:11:58.901Z,5.90
2019-01-08T05:14:27.354Z,5.90
2019-01-08T05:16:55.827Z,5.90
2019-01-08T05:19:24.627Z,5.90
2019-01-08T05:21:53.377Z,5.90
2019-01-08T05:24:22.202Z,5.90
2019-01-08T05:26:50.984Z,5.90
2019-01-08T05:29:19.849Z,5.80
2019-01-08T05:31:48.637Z,5.90
2019-01-08T05:34:17.509Z,5.80
2019-01-08T05:36:46.040Z,5.90
2019-01-08T05:39:14.793Z,5.80
2019-01-08T05:41:43.265Z,5.80
2019-01-08T05:44:12.072Z,5.80
2019-01-08T05:46:40.629Z,5.80
2019-01-08T05:49:09.437Z,5.80
2019-01-08T05:51:38.209Z,5.80
2019-01-08T05:54:06.685Z,5.80
2019-01-08T05:56:35.491Z,5.80
2019-01-08T05:59:04.211Z,5.80
2019-01-08T06:01:34.781Z,5.80
2019-01-08T06:04:03.364Z,5.80
2019-01-08T06:06:33.929Z,5.80
2019-01-08T06:09:02.695Z,5.80
2019-01-08T06:11:33.275Z,5.90
2019-01-08T06:14:01.717Z,5.80
2019-01-08T06:16:30.213Z,5.80
2019-01-08T06:18:58.653Z,5.90
2019-01-08T06:21:27.470Z,5.90
2019-01-08T06:23:56.315Z,5.90
2019-01-08T06:26:24.757Z,5.90
2019-01-08T06:28:53.613Z,6.00
2019-01-08T06:31:22.739Z,6.00
2019-01-08T06:33:51.433Z,6.00
2019-01-08T06:36:20.261Z,6.10
2019-01-08T06:38:48.741Z,6.10
2019-01-08T06:41:17.550Z,6.10
2019-01-08T06:43:46.100Z,6.20
2019-01-08T06:46:14.817Z,6.20
2019-01-08T06:48:43.337Z,6.20
2019-01-08T06:51:12.178Z,6.20
2019-01-08T06:53:41.775Z,6.20
2019-01-08T06:56:10.356Z,6.30
2019-01-08T06:58:39.155Z,6.30
2019-01-08T07:01:08.550Z,6.30
2019-01-08T07:03:37.353Z,6.40
2019-01-08T07:06:06.107Z,6.40
2019-01-08T07:08:35.026Z,6.50
2019-01-08T07:11:03.786Z,6.50
2019-01-08T07:13:32.247Z,6.40
2019-01-08T07:16:00.978Z,6.30
2019-01-08T07:18:29.429Z,6.20
2019-01-08T07:20:57.872Z,6.00
2019-01-08T07:23:26.710Z,6.00
2019-01-08T07:25:56.714Z,5.90
2019-01-08T07:28:25.518Z,5.90
2019-01-08T07:30:54.293Z,5.80
2019-01-08T07:33:24.646Z,5.90
2019-01-08T07:35:53.096Z,5.90
2019-01-08T07:38:21.884Z,5.90
2019-01-08T07:40:50.332Z,5.90
2019-01-08T07:43:20.688Z,5.90
2019-01-08T07:45:49.270Z,5.90
2019-01-08T07:48:19.177Z,5.80
2019-01-08T07:50:47.630Z,5.80
2019-01-08T07:53:16.442Z,5.90
2019-01-08T07:55:44.888Z,5.90
2019-01-08T07:58:14.073Z,5.80
2019-01-08T08:00:49.763Z,5.80
2019-01-08T08:03:12.710Z,5.80
2019-01-08T08:05:42.512Z,5.80
2019-01-08T08:08:10.996Z,5.80
2019-01-08T08:10:39.439Z,5.80
2019-01-08T08:13:08.158Z,5.80
2019-01-08T08:15:36.974Z,5.80
2019-01-08T08:18:05.723Z,5.80
2019-01-08T08:20:34.268Z,5.90
2019-01-08T08:23:03.157Z,5.90
2019-01-08T08:25:32.435Z,6.00
2019-01-08T08:28:01.146Z,6.10
2019-01-08T08:30:29.992Z,6.30
2019-01-08T08:32:58.464Z,6.40
2019-01-08T08:35:26.908Z,6.40
2019-01-08T08:37:55.381Z,6.40
2019-01-08T08:40:23.844Z,6.60
2019-01-08T08:42:54.135Z,6.70
2019-01-08T08:45:22.625Z,6.70
2019-01-08T08:47:51.450Z,6.70
2019-01-08T08:50:19.910Z,6.70
2019-01-08T08:52:48.765Z,6.70
2019-01-08T08:55:17.369Z,6.60
2019-01-08T08:57:45.820Z,6.60
2019-01-08T09:00:14.625Z,6.60
2019-01-08T09:02:43.407Z,6.60
2019-01-08T09:05:12.696Z,6.60
2019-01-08T09:07:41.483Z,6.60
2019-01-08T09:10:10.365Z,6.60
2019-01-08T09:12:39.090Z,6.60
2019-01-08T09:15:07.961Z,6.60
2019-01-08T09:17:36.748Z,6.60
2019-01-08T09:20:08.509Z,6.60
2019-01-08T09:22:37.361Z,6.70
2019-01-08T09:25:06.750Z,6.80
2019-01-08T09:27:35.197Z,6.80
2019-01-08T09:30:04.792Z,7.00
2019-01-08T09:32:33.549Z,7.20
2019-01-08T09:35:02.104Z,7.20
2019-01-08T09:37:30.575Z,7.20
2019-01-08T09:40:00.983Z,7.10
2019-01-08T09:42:29.705Z,7.20
2019-01-08T09:44:58.536Z,7.20
2019-01-08T09:47:26.997Z,7.20
2019-01-08T09:49:55.872Z,7.20
2019-01-08T09:52:24.660Z,7.30
2019-01-08T09:54:53.121Z,7.30
2019-01-08T09:57:21.966Z,7.30
2019-01-08T09:59:50.439Z,7.40
2019-01-08T10:02:18.893Z,7.40
2019-01-08T10:04:47.345Z,7.50
2019-01-08T10:07:16.189Z,7.50
2019-01-08T10:09:44.639Z,7.60
2019-01-08T10:12:13.153Z,7.50
2019-01-08T10:14:41.619Z,7.50
2019-01-08T10:17:10.381Z,7.40
2019-01-08T10:19:39.145Z,7.50
2019-01-08T10:22:07.909Z,7.40
2019-01-08T10:24:36.380Z,7.40
2019-01-08T10:27:08.712Z,7.40
2019-01-08T10:29:37.196Z,7.30
2019-01-08T10:32:05.716Z,7.30
2019-01-08T10:34:34.474Z,7.20
2019-01-08T10:37:03.285Z,7.20
2019-01-08T10:39:32.049Z,7.20
2019-01-08T10:42:00.837Z,7.20
2019-01-08T10:44:29.613Z,7.20
2019-01-08T10:46:58.050Z,7.20
2019-01-08T10:49:26.771Z,7.30
2019-01-08T10:51:55.563Z,7.30
2019-01-08T10:54:24.002Z,7.30
2019-01-08T10:56:52.617Z,7.30
2019-01-08T10:59:21.429Z,7.20
2019-01-08T11:01:51.741Z,7.20
2019-01-08T11:04:20.237Z,7.20
2019-01-08T11:06:48.789Z,7.50
2019-01-08T11:09:17.245Z,7.60
2019-01-08T11:11:45.701Z,7.60
2019-01-08T11:14:14.243Z,7.60
2019-01-08T11:16:42.964Z,7.60
2019-01-08T11:19:11.416Z,7.50
2019-01-08T11:21:39.989Z,7.50
2019-01-08T11:24:08.697Z,7.50
2019-01-08T11:26:37.223Z,7.50
2019-01-08T11:29:05.966Z,7.50
2019-01-08T11:31:34.464Z,7.50
2019-01-08T11:34:03.192Z,7.50
2019-01-08T11:36:31.705Z,7.50
2019-01-08T11:39:00.459Z,7.60
2019-01-08T11:41:28.901Z,7.60
2019-01-08T11:43:57.395Z,7.60
2019-01-08T11:46:26.113Z,7.60
2019-01-08T11:48:55.054Z,7.70
2019-01-08T11:51:23.661Z,7.70
2019-01-08T11:53:52.113Z,7.80
2019-01-08T11:56:20.612Z,7.80
2019-01-08T11:58:49.091Z,7.80
2019-01-08T12:01:17.926Z,7.80
2019-01-08T12:03:46.808Z,7.80
2019-01-08T12:06:15.342Z,7.80
2019-01-08T12:08:43.820Z,7.80
2019-01-08T12:11:12.325Z,7.80
2019-01-08T12:13:41.173Z,7.80
2019-01-08T12:16:10.022Z,7.90
2019-01-08T12:18:38.507Z,8.00
2019-01-08T12:21:07.308Z,8.10
2019-01-08T12:23:36.086Z,8.10
2019-01-08T12:26:04.865Z,8.10
2019-01-08T12:28:33.676Z,8.10
2019-01-08T12:31:02.522Z,8.10
2019-01-08T12:33:30.965Z,8.10
2019-01-08T12:36:00.845Z,8.30
2019-01-08T12:38:29.307Z,8.80
2019-01-08T12:40:57.817Z,8.60
2019-01-08T12:43:26.276Z,8.50
2019-01-08T12:45:54.806Z,8.40
2019-01-08T12:48:23.333Z,8.20
2019-01-08T12:50:51.850Z,8.20
2019-01-08T12:53:20.303Z,8.20
2019-01-08T12:55:49.034Z,8.20
2019-01-08T12:58:17.850Z,8.20
2019-01-08T13:00:46.392Z,8.30
2019-01-08T13:03:15.147Z,8.30
2019-01-08T13:05:43.898Z,8.30
2019-01-08T13:08:12.684Z,8.20
2019-01-08T13:10:41.532Z,8.20
2019-01-08T13:13:10.274Z,8.20
2019-01-08T13:15:38.733Z,8.20
2019-01-08T13:18:07.216Z,8.10
2019-01-08T13:20:36.006Z,8.10
2019-01-08T13:23:04.836Z,8.10
2019-01-08T13:25:33.356Z,8.00
2019-01-08T13:28:01.831Z,8.00
2019-01-08T13:30:31.124Z,8.00
2019-01-08T13:33:02.072Z,8.00
2019-01-08T13:35:30.568Z,8.00
2019-01-08T13:37:59.771Z,8.00
2019-01-08T13:40:28.562Z,8.00
2019-01-08T13:42:58.105Z,8.00
2019-01-08T13:45:26.975Z,8.00
2019-01-08T13:47:55.462Z,8.00
2019-01-08T13:50:23.920Z,8.00
2019-01-08T13:52:52.797Z,8.00
2019-01-08T13:55:22.107Z,8.00
2019-01-08T13:57:50.648Z,8.00
2019-01-08T14:00:19.516Z,8.00
2019-01-08T14:02:48.462Z,8.00
2019-01-08T14:05:16.936Z,8.00
2019-01-08T14:07:45.836Z,8.10
2019-01-08T14:10:14.505Z,8.00
2019-01-08T14:12:43.270Z,8.00
2019-01-08T14:15:12.920Z,8.00
2019-01-08T14:17:42.027Z,8.00
2019-01-08T14:20:11.570Z,8.00
2019-01-08T14:22:40.488Z,8.00
2019-01-08T14:25:09.016Z,8.00
2019-01-08T14:27:39.392Z,8.00
2019-01-08T14:30:10.166Z,8.00
2019-01-08T14:32:40.868Z,8.10
2019-01-08T14:35:08.880Z,8.00
2019-01-08T14:37:37.336Z,8.00
2019-01-08T14:40:07.192Z,8.00
2019-01-08T14:42:36.044Z,7.90
2019-01-08T14:45:05.370Z,7.90
2019-01-08T14:47:34.109Z,7.80
2019-01-08T14:50:02.999Z,7.70
2019-01-08T14:52:32.776Z,7.60
2019-01-08T14:55:01.228Z,7.50
2019-01-08T14:57:32.017Z,7.50
2019-01-08T15:00:00.299Z,7.50
2019-01-08T15:02:28.848Z,7.40
2019-01-08T15:04:58.054Z,7.40
2019-01-08T15:07:26.788Z,7.30
2019-01-08T15:09:56.082Z,7.30
2019-01-08T15:12:24.557Z,7.20
2019-01-08T15:14:53.322Z,7.20
2019-01-08T15:17:22.140Z,7.20
2019-01-08T15:19:50.714Z,7.10
2019-01-08T15:22:19.160Z,7.00
2019-01-08T15:24:47.961Z,6.90
2019-01-08T15:27:16.408Z,6.90
2019-01-08T15:29:45.133Z,6.80
2019-01-08T15:32:13.693Z,6.80
2019-01-08T15:34:42.132Z,6.80
2019-01-08T15:37:10.593Z,6.80
2019-01-08T15:39:39.131Z,6.70
2019-01-08T15:42:07.949Z,6.70
2019-01-08T15:44:36.663Z,6.70
2019-01-08T15:47:06.160Z,6.70
2019-01-08T15:49:34.909Z,6.80
2019-01-08T15:52:03.367Z,6.80
2019-01-08T15:54:31.838Z,6.80
2019-01-08T15:57:00.677Z,6.70
2019-01-08T15:59:29.195Z,6.70
2019-01-08T16:01:58.442Z,6.60
2019-01-08T16:04:27.918Z,6.50
2019-01-08T16:06:58.737Z,6.50
2019-01-08T16:09:29.185Z,6.40
2019-01-08T16:11:58.833Z,6.50
2019-01-08T16:14:27.703Z,6.50
2019-01-08T16:16:56.966Z,6.50
2019-01-08T16:19:25.558Z,6.50
2019-01-08T16:21:54.453Z,6.40
2019-01-08T16:24:22.980Z,6.40
2019-01-08T16:26:52.641Z,6.30
2019-01-08T16:29:21.077Z,6.30
2019-01-08T16:31:49.620Z,6.30
2019-01-08T16:34:18.929Z,6.30
2019-01-08T16:36:48.387Z,6.20
2019-01-08T16:39:18.586Z,6.30
2019-01-08T16:41:47.102Z,6.20
2019-01-08T16:44:15.925Z,6.20
2019-01-08T16:46:44.412Z,6.20
2019-01-08T16:49:13.193Z,6.20
2019-01-08T16:51:41.733Z,6.20
2019-01-08T16:54:10.554Z,6.30
2019-01-08T16:56:39.313Z,6.30
2019-01-08T16:59:07.845Z,6.30
2019-01-08T17:01:36.593Z,6.40
2019-01-08T17:04:05.397Z,6.40
2019-01-08T17:06:33.868Z,6.40
2019-01-08T17:09:02.682Z,6.40
2019-01-08T17:11:31.205Z,6.40
2019-01-08T17:13:59.709Z,6.30
2019-01-08T17:16:28.421Z,6.30
2019-01-08T17:18:56.902Z,6.20
2019-01-08T17:21:25.430Z,6.20
2019-01-08T17:23:53.921Z,6.20
2019-01-08T17:26:22.402Z,6.10
2019-01-08T17:28:50.849Z,6.10
2019-01-08T17:31:19.638Z,6.10
2019-01-08T17:33:48.105Z,6.00
2019-01-08T17:36:16.607Z,6.00
2019-01-08T17:38:45.448Z,6.00
2019-01-08T17:41:14.038Z,5.90
2019-01-08T17:43:42.556Z,5.90
2019-01-08T17:46:11.026Z,5.90
2019-01-08T17:48:39.554Z,6.00
2019-01-08T17:51:07.997Z,5.90
2019-01-08T17:53:36.730Z,5.90
2019-01-08T17:56:05.273Z,5.90
2019-01-08T17:58:39.936Z,5.90
2019-01-08T18:01:14.185Z,6.00
2019-01-08T18:03:43.251Z,5.90
2019-01-08T18:06:11.855Z,5.90
2019-01-08T18:08:40.427Z,5.90
2019-01-08T18:11:08.874Z,5.90
2019-01-08T18:13:37.316Z,5.80
2019-01-08T18:16:05.976Z,5.80
2019-01-08T18:18:34.482Z,5.80
2019-01-08T18:21:03.201Z,5.80
2019-01-08T18:23:33.838Z,5.80
2019-01-08T18:26:02.434Z,5.80
2019-01-08T18:28:31.219Z,5.80
2019-01-08T18:30:59.782Z,5.80
2019-01-08T18:33:28.568Z,5.80
2019-01-08T18:35:57.877Z,5.90
2019-01-08T18:38:26.710Z,5.90
2019-01-08T18:40:55.545Z,5.90
2019-01-08T18:43:26.601Z,6.00
2019-01-08T18:45:55.365Z,6.00
2019-01-08T18:48:28.218Z,5.90
2019-01-08T18:50:56.936Z,5.80
2019-01-08T18:53:25.824Z,5.80
2019-01-08T18:55:54.446Z,5.80
2019-01-08T18:58:23.047Z,5.80
2019-01-08T19:00:51.560Z,5.80
2019-01-08T19:03:20.007Z,5.80
2019-01-08T19:05:48.822Z,5.80
2019-01-08T19:08:17.291Z,5.90
2019-01-08T19:10:46.120Z,5.90
2019-01-08T19:13:14.680Z,5.90
2019-01-08T19:15:43.144Z,5.90
2019-01-08T19:18:11.585Z,5.90
2019-01-08T19:20:40.128Z,5.90
2019-01-08T19:23:08.947Z,5.90
2019-01-08T19:25:37.821Z,5.90
2019-01-08T19:28:06.532Z,6.00
2019-01-08T19:30:35.018Z,6.00
2019-01-08T19:33:03.464Z,6.00
2019-01-08T19:35:32.325Z,6.00
2019-01-08T19:38:01.120Z,6.00
2019-01-08T19:40:29.567Z,6.00
2019-01-08T19:42:58.013Z,6.00
2019-01-08T19:45:26.574Z,6.10
2019-01-08T19:47:56.097Z,6.10
2019-01-08T19:50:24.952Z,6.10
2019-01-08T19:52:53.504Z,6.10
2019-01-08T19:55:22.215Z,6.00
2019-01-08T19:57:50.983Z,6.00
2019-01-08T20:00:19.601Z,6.00
2019-01-08T20:02:48.048Z,6.00
2019-01-08T20:05:16.522Z,6.00
2019-01-08T20:07:44.960Z,6.00
2019-01-08T20:10:13.410Z,5.90
2019-01-08T20:12:42.191Z,6.00
2019-01-08T20:15:10.708Z,6.00
2019-01-08T20:17:39.489Z,6.00
2019-01-08T20:20:08.495Z,6.00
2019-01-08T20:22:36.954Z,6.00
2019-01-08T20:25:05.866Z,6.00
2019-01-08T20:27:34.409Z,6.00
2019-01-08T20:30:02.956Z,5.90
2019-01-08T20:32:31.968Z,5.90
2019-01-08T20:35:00.493Z,5.80
2019-01-08T20:37:29.843Z,5.80
2019-01-08T20:39:58.559Z,5.70
2019-01-08T20:42:27.479Z,5.70
2019-01-08T20:44:56.335Z,5.70
2019-01-08T20:47:25.382Z,5.80
2019-01-08T20:49:54.226Z,5.80
2019-01-08T20:52:22.982Z,5.70
2019-01-08T20:54:52.377Z,5.70
2019-01-08T20:57:22.249Z,5.60
2019-01-08T20:59:52.173Z,5.60
2019-01-08T21:02:20.782Z,5.60
2019-01-08T21:04:49.594Z,5.50
2019-01-08T21:07:18.397Z,5.50
2019-01-08T21:09:46.876Z,5.50
2019-01-08T21:12:15.322Z,5.60
2019-01-08T21:14:44.195Z,5.60
2019-01-08T21:17:12.702Z,5.60
2019-01-08T21:19:41.159Z,5.70
2019-01-08T21:22:11.804Z,5.70
2019-01-08T21:24:41.341Z,5.70
2019-01-08T21:27:10.133Z,5.70
2019-01-08T21:29:38.597Z,5.70
2019-01-08T21:32:07.375Z,5.70
2019-01-08T21:34:44.658Z,5.70
2019-01-08T21:37:10.265Z,5.70
2019-01-08T21:39:39.057Z,5.70
2019-01-08T21:42:07.572Z,5.70
2019-01-08T21:44:37.263Z,5.70
2019-01-08T21:47:06.066Z,5.70
2019-01-08T21:49:35.345Z,5.70
2019-01-08T21:52:04.244Z,5.60
2019-01-08T21:54:32.759Z,5.60
2019-01-08T21:57:01.209Z,5.50
2019-01-08T21:59:31.575Z,5.50
2019-01-08T22:02:01.001Z,5.40
2019-01-08T22:04:30.234Z,5.40
2019-01-08T22:07:02.364Z,5.40
2019-01-08T22:09:31.075Z,5.40
2019-01-08T22:11:59.544Z,5.40
2019-01-08T22:14:32.157Z,5.40
2019-01-08T22:17:00.898Z,5.30
2019-01-08T22:19:29.416Z,5.30
2019-01-08T22:21:57.971Z,5.20
2019-01-08T22:24:34.209Z,5.20
2019-01-08T22:27:02.989Z,5.20
2019-01-08T22:29:31.771Z,5.10
2019-01-08T22:32:00.346Z,5.10
2019-01-08T22:34:29.085Z,5.10
2019-01-08T22:36:57.989Z,5.00
2019-01-08T22:39:26.979Z,5.00
2019-01-08T22:41:56.236Z,4.90
2019-01-08T22:44:24.789Z,4.90
2019-01-08T22:46:55.492Z,4.80
2019-01-08T22:49:25.911Z,4.80
2019-01-08T22:51:56.428Z,4.80
2019-01-08T22:54:26.161Z,4.90
2019-01-08T22:56:56.421Z,4.90
2019-01-08T22:59:24.878Z,4.90
2019-01-08T23:01:53.868Z,4.80
2019-01-08T23:04:23.357Z,4.70
2019-01-08T23:06:54.509Z,4.70
2019-01-08T23:09:24.715Z,4.70
2019-01-08T23:11:53.805Z,4.60
2019-01-08T23:14:22.931Z,4.60
2019-01-08T23:17:09.426Z,4.50
2019-01-08T23:19:38.525Z,4.50
2019-01-08T23:22:12.084Z,4.50
2019-01-08T23:24:50.425Z,4.60
2019-01-08T23:27:21.088Z,4.60
2019-01-08T23:29:50.877Z,4.70
2019-01-08T23:32:23.194Z,4.70
2019-01-08T23:34:52.110Z,4.70
2019-01-08T23:37:23.819Z,4.80
2019-01-08T23:39:52.627Z,4.70
2019-01-08T23:42:24.422Z,4.70
2019-01-08T23:44:57.263Z,4.70
2019-01-08T23:47:29.943Z,4.60
2019-01-08T23:49:58.733Z,4.60
2019-01-08T23:52:33.234Z,4.50
2019-01-08T23:55:05.104Z,4.50
2019-01-08T23:57:36.052Z,4.50
